sensor_id;sensor_type;location;lat;lon;timestamp;pressure;altitude;pressure_sealevel;temperature;humidity
21658;BME280;10990;48.174;9.782;2023-01-29T00:00:18;93541.50;;;-0.59;100.00
21658;BME280;10990;48.174;9.782;2023-01-29T00:02:45;93536.16;;;-0.57;100.00
21658;BME280;10990;48.174;9.782;2023-01-29T00:05:14;93536.97;;;-0.57;100.00
21658;BME280;10990;48.174;9.782;2023-01-29T00:07:41;93544.91;;;-0.58;100.00
21658;BME280;10990;48.174;9.782;2023-01-29T00:10:09;93544.19;;;-0.60;100.00
21658;BME280;10990;48.174;9.782;2023-01-29T00:12:36;93546.69;;;-0.59;100.00
21658;BME280;10990;48.174;9.782;2023-01-29T00:15:03;93546.81;;;-0.60;100.00
21658;BME280;10990;48.174;9.782;2023-01-29T00:17:30;93546.00;;;-0.61;100.00
21658;BME280;10990;48.174;9.782;2023-01-29T00:19:57;93546.69;;;-0.59;100.00
21658;BME280;10990;48.174;9.782;2023-01-29T00:22:25;93551.03;;;-0.59;100.00
21658;BME280;10990;48.174;9.782;2023-01-29T00:24:52;93561.41;;;-0.59;100.00
21658;BME280;10990;48.174;9.782;2023-01-29T00:27:18;93578.34;;;-0.65;100.00
21658;BME280;10990;48.174;9.782;2023-01-29T00:29:46;93592.81;;;-0.72;100.00
21658;BME280;10990;48.174;9.782;2023-01-29T00:32:33;93602.66;;;-0.66;100.00
21658;BME280;10990;48.174;9.782;2023-01-29T00:35:00;93618.78;;;-0.72;100.00
21658;BME280;10990;48.174;9.782;2023-01-29T00:37:28;93618.38;;;-0.68;100.00
21658;BME280;10990;48.174;9.782;2023-01-29T00:39:56;93614.69;;;-0.65;100.00
21658;BME280;10990;48.174;9.782;2023-01-29T00:42:23;93600.50;;;-0.61;100.00
21658;BME280;10990;48.174;9.782;2023-01-29T00:45:10;93606.22;;;-0.57;100.00
21658;BME280;10990;48.174;9.782;2023-01-29T00:47:37;93619.75;;;-0.63;100.00
21658;BME280;10990;48.174;9.782;2023-01-29T00:50:06;93621.66;;;-0.65;100.00
21658;BME280;10990;48.174;9.782;2023-01-29T00:52:34;93616.19;;;-0.62;100.00
21658;BME280;10990;48.174;9.782;2023-01-29T00:55:02;93621.13;;;-0.59;100.00
21658;BME280;10990;48.174;9.782;2023-01-29T00:57:31;93640.25;;;-0.60;100.00
21658;BME280;10990;48.174;9.782;2023-01-29T00:59:59;93623.22;;;-0.53;100.00
21658;BME280;10990;48.174;9.782;2023-01-29T01:02:26;93645.81;;;-0.65;100.00
21658;BME280;10990;48.174;9.782;2023-01-29T01:05:19;93651.28;;;-0.68;100.00
21658;BME280;10990;48.174;9.782;2023-01-29T01:07:48;93657.06;;;-0.64;100.00
21658;BME280;10990;48.174;9.782;2023-01-29T01:10:17;93658.41;;;-0.60;100.00
21658;BME280;10990;48.174;9.782;2023-01-29T01:12:46;93668.09;;;-0.62;100.00
21658;BME280;10990;48.174;9.782;2023-01-29T01:15:13;93680.69;;;-0.68;100.00
21658;BME280;10990;48.174;9.782;2023-01-29T01:17:39;93700.59;;;-0.68;100.00
21658;BME280;10990;48.174;9.782;2023-01-29T01:20:08;93701.56;;;-0.69;100.00
21658;BME280;10990;48.174;9.782;2023-01-29T01:22:35;93726.81;;;-0.71;100.00
21658;BME280;10990;48.174;9.782;2023-01-29T01:25:04;93740.63;;;-0.71;100.00
21658;BME280;10990;48.174;9.782;2023-01-29T01:27:30;93733.53;;;-0.69;100.00
21658;BME280;10990;48.174;9.782;2023-01-29T01:29:59;93747.59;;;-0.71;100.00
21658;BME280;10990;48.174;9.782;2023-01-29T01:32:26;93755.63;;;-0.74;100.00
21658;BME280;10990;48.174;9.782;2023-01-29T01:34:52;93778.44;;;-0.78;100.00
21658;BME280;10990;48.174;9.782;2023-01-29T01:37:19;93792.09;;;-0.76;100.00
21658;BME280;10990;48.174;9.782;2023-01-29T01:39:46;93805.09;;;-0.76;100.00
21658;BME280;10990;48.174;9.782;2023-01-29T01:42:16;93828.91;;;-0.82;100.00
21658;BME280;10990;48.174;9.782;2023-01-29T01:44:54;93837.56;;;-0.81;100.00
21658;BME280;10990;48.174;9.782;2023-01-29T01:47:27;93837.81;;;-0.84;100.00
21658;BME280;10990;48.174;9.782;2023-01-29T01:49:56;93834.00;;;-0.80;100.00
21658;BME280;10990;48.174;9.782;2023-01-29T01:52:26;93850.44;;;-0.91;100.00
21658;BME280;10990;48.174;9.782;2023-01-29T01:54:54;93851.25;;;-0.91;100.00
21658;BME280;10990;48.174;9.782;2023-01-29T01:57:23;93861.78;;;-0.92;100.00
21658;BME280;10990;48.174;9.782;2023-01-29T01:59:55;93864.13;;;-0.89;100.00
21658;BME280;10990;48.174;9.782;2023-01-29T02:02:23;93885.94;;;-0.92;100.00
21658;BME280;10990;48.174;9.782;2023-01-29T02:05:10;93895.50;;;-0.92;100.00
21658;BME280;10990;48.174;9.782;2023-01-29T02:07:55;93898.56;;;-0.87;100.00
21658;BME280;10990;48.174;9.782;2023-01-29T02:10:44;93919.47;;;-1.00;100.00
21658;BME280;10990;48.174;9.782;2023-01-29T02:13:13;93922.06;;;-1.00;100.00
21658;BME280;10990;48.174;9.782;2023-01-29T02:15:43;93924.97;;;-0.93;100.00
21658;BME280;10990;48.174;9.782;2023-01-29T02:18:11;93927.16;;;-0.98;100.00
21658;BME280;10990;48.174;9.782;2023-01-29T02:20:41;93931.38;;;-0.97;100.00
21658;BME280;10990;48.174;9.782;2023-01-29T02:23:30;93929.75;;;-0.98;100.00
21658;BME280;10990;48.174;9.782;2023-01-29T02:26:08;93935.75;;;-0.98;100.00
21658;BME280;10990;48.174;9.782;2023-01-29T02:28:44;93948.50;;;-1.06;100.00
21658;BME280;10990;48.174;9.782;2023-01-29T02:31:22;93943.66;;;-0.99;100.00
21658;BME280;10990;48.174;9.782;2023-01-29T02:33:57;93947.53;;;-0.94;100.00
21658;BME280;10990;48.174;9.782;2023-01-29T02:36:31;93956.13;;;-0.93;100.00
21658;BME280;10990;48.174;9.782;2023-01-29T02:39:10;93950.94;;;-0.93;100.00
21658;BME280;10990;48.174;9.782;2023-01-29T02:41:41;93964.41;;;-0.99;100.00
21658;BME280;10990;48.174;9.782;2023-01-29T02:44:16;93955.06;;;-0.91;100.00
21658;BME280;10990;48.174;9.782;2023-01-29T02:46:51;93974.09;;;-1.01;100.00
21658;BME280;10990;48.174;9.782;2023-01-29T02:49:29;93975.84;;;-1.02;100.00
21658;BME280;10990;48.174;9.782;2023-01-29T02:52:02;93983.38;;;-0.99;100.00
21658;BME280;10990;48.174;9.782;2023-01-29T02:54:36;93997.09;;;-1.08;100.00
21658;BME280;10990;48.174;9.782;2023-01-29T02:57:09;93988.13;;;-1.04;100.00
21658;BME280;10990;48.174;9.782;2023-01-29T02:59:48;93993.19;;;-1.02;100.00
21658;BME280;10990;48.174;9.782;2023-01-29T03:02:20;93985.16;;;-0.99;100.00
21658;BME280;10990;48.174;9.782;2023-01-29T03:04:57;94001.69;;;-1.00;100.00
21658;BME280;10990;48.174;9.782;2023-01-29T03:07:29;93992.13;;;-1.00;100.00
21658;BME280;10990;48.174;9.782;2023-01-29T03:10:14;93993.53;;;-0.96;100.00
21658;BME280;10990;48.174;9.782;2023-01-29T03:12:43;94014.19;;;-1.05;100.00
21658;BME280;10990;48.174;9.782;2023-01-29T03:15:18;94026.44;;;-1.07;100.00
21658;BME280;10990;48.174;9.782;2023-01-29T03:18:07;94016.66;;;-0.93;100.00
21658;BME280;10990;48.174;9.782;2023-01-29T03:20:39;94034.34;;;-0.98;100.00
21658;BME280;10990;48.174;9.782;2023-01-29T03:23:18;94042.63;;;-1.04;100.00
21658;BME280;10990;48.174;9.782;2023-01-29T03:25:53;94057.47;;;-1.06;100.00
21658;BME280;10990;48.174;9.782;2023-01-29T03:28:40;94050.72;;;-0.97;100.00
21658;BME280;10990;48.174;9.782;2023-01-29T03:31:28;94067.59;;;-1.03;100.00
21658;BME280;10990;48.174;9.782;2023-01-29T03:34:16;94067.59;;;-1.03;100.00
21658;BME280;10990;48.174;9.782;2023-01-29T03:36:52;94080.00;;;-1.06;100.00
21658;BME280;10990;48.174;9.782;2023-01-29T03:39:21;94096.13;;;-1.14;100.00
21658;BME280;10990;48.174;9.782;2023-01-29T03:41:53;94095.31;;;-1.03;100.00
21658;BME280;10990;48.174;9.782;2023-01-29T03:44:29;94091.53;;;-0.99;100.00
21658;BME280;10990;48.174;9.782;2023-01-29T03:47:07;94089.41;;;-0.94;100.00
21658;BME280;10990;48.174;9.782;2023-01-29T03:49:50;94109.59;;;-0.98;100.00
21658;BME280;10990;48.174;9.782;2023-01-29T03:52:26;94112.28;;;-0.99;100.00
21658;BME280;10990;48.174;9.782;2023-01-29T03:54:58;94117.47;;;-0.99;100.00
21658;BME280;10990;48.174;9.782;2023-01-29T03:57:34;94123.84;;;-1.03;100.00
21658;BME280;10990;48.174;9.782;2023-01-29T04:00:11;94129.03;;;-1.03;100.00
21658;BME280;10990;48.174;9.782;2023-01-29T04:02:47;94118.66;;;-0.92;100.00
21658;BME280;10990;48.174;9.782;2023-01-29T04:05:20;94142.13;;;-0.94;100.00
21658;BME280;10990;48.174;9.782;2023-01-29T04:08:09;94160.75;;;-1.11;100.00
21658;BME280;10990;48.174;9.782;2023-01-29T04:10:40;94143.91;;;-0.94;100.00
21658;BME280;10990;48.174;9.782;2023-01-29T04:13:10;94156.28;;;-0.98;100.00
21658;BME280;10990;48.174;9.782;2023-01-29T04:15:46;94154.41;;;-0.96;100.00
21658;BME280;10990;48.174;9.782;2023-01-29T04:18:20;94149.22;;;-0.96;100.00
21658;BME280;10990;48.174;9.782;2023-01-29T04:21:01;94164.31;;;-1.01;100.00
21658;BME280;10990;48.174;9.782;2023-01-29T04:23:32;94150.53;;;-0.90;100.00
21658;BME280;10990;48.174;9.782;2023-01-29T04:26:15;94144.47;;;-0.91;100.00
21658;BME280;10990;48.174;9.782;2023-01-29T04:28:58;94138.38;;;-0.89;100.00
21658;BME280;10990;48.174;9.782;2023-01-29T04:31:33;94137.56;;;-0.90;100.00
21658;BME280;10990;48.174;9.782;2023-01-29T04:34:14;94152.88;;;-0.98;100.00
21658;BME280;10990;48.174;9.782;2023-01-29T04:36:50;94156.41;;;-0.99;100.00
21658;BME280;10990;48.174;9.782;2023-01-29T04:39:24;94156.53;;;-0.89;100.00
21658;BME280;10990;48.174;9.782;2023-01-29T04:41:58;94163.84;;;-0.95;100.00
21658;BME280;10990;48.174;9.782;2023-01-29T04:44:33;94163.50;;;-0.90;100.00
21658;BME280;10990;48.174;9.782;2023-01-29T04:47:06;94171.03;;;-0.98;100.00
21658;BME280;10990;48.174;9.782;2023-01-29T04:49:44;94169.28;;;-0.98;100.00
21658;BME280;10990;48.174;9.782;2023-01-29T04:52:16;94183.03;;;-1.08;100.00
21658;BME280;10990;48.174;9.782;2023-01-29T04:54:55;94164.78;;;-1.07;100.00
21658;BME280;10990;48.174;9.782;2023-01-29T04:57:32;94157.59;;;-1.03;100.00
21658;BME280;10990;48.174;9.782;2023-01-29T05:00:04;94159.94;;;-1.00;100.00
21658;BME280;10990;48.174;9.782;2023-01-29T05:02:36;94157.13;;;-0.97;100.00
21658;BME280;10990;48.174;9.782;2023-01-29T05:05:06;94151.34;;;-0.89;100.00
21658;BME280;10990;48.174;9.782;2023-01-29T05:07:36;94173.88;;;-1.01;100.00
21658;BME280;10990;48.174;9.782;2023-01-29T05:10:05;94161.47;;;-0.98;100.00
21658;BME280;10990;48.174;9.782;2023-01-29T05:12:32;94167.72;;;-1.00;100.00
21658;BME280;10990;48.174;9.782;2023-01-29T05:15:02;94178.81;;;-0.98;100.00
21658;BME280;10990;48.174;9.782;2023-01-29T05:17:30;94191.66;;;-1.08;100.00
21658;BME280;10990;48.174;9.782;2023-01-29T05:19:57;94183.16;;;-0.99;100.00
21658;BME280;10990;48.174;9.782;2023-01-29T05:22:26;94178.47;;;-0.94;100.00
21658;BME280;10990;48.174;9.782;2023-01-29T05:24:53;94185.88;;;-1.00;100.00
21658;BME280;10990;48.174;9.782;2023-01-29T05:27:22;94178.22;;;-0.91;100.00
21658;BME280;10990;48.174;9.782;2023-01-29T05:30:08;94181.06;;;-0.82;100.00
21658;BME280;10990;48.174;9.782;2023-01-29T05:32:34;94184.47;;;-0.82;100.00
21658;BME280;10990;48.174;9.782;2023-01-29T05:35:01;94199.13;;;-0.92;100.00
21658;BME280;10990;48.174;9.782;2023-01-29T05:37:29;94199.84;;;-0.90;100.00
21658;BME280;10990;48.174;9.782;2023-01-29T05:39:56;94215.16;;;-0.98;100.00
21658;BME280;10990;48.174;9.782;2023-01-29T05:42:23;94209.97;;;-0.98;100.00
21658;BME280;10990;48.174;9.782;2023-01-29T05:44:49;94207.59;;;-1.01;100.00
21658;BME280;10990;48.174;9.782;2023-01-29T05:47:18;94203.59;;;-0.94;100.00
21658;BME280;10990;48.174;9.782;2023-01-29T05:49:45;94210.06;;;-1.00;100.00
21658;BME280;10990;48.174;9.782;2023-01-29T05:52:11;94213.97;;;-0.94;100.00
21658;BME280;10990;48.174;9.782;2023-01-29T05:54:39;94216.31;;;-1.02;100.00
21658;BME280;10990;48.174;9.782;2023-01-29T05:57:06;94224.56;;;-1.08;100.00
21658;BME280;10990;48.174;9.782;2023-01-29T05:59:33;94230.84;;;-0.88;100.00
21658;BME280;10990;48.174;9.782;2023-01-29T06:01:59;94239.94;;;-0.83;100.00
21658;BME280;10990;48.174;9.782;2023-01-29T06:04:26;94266.13;;;-0.86;100.00
21658;BME280;10990;48.174;9.782;2023-01-29T06:06:53;94265.16;;;-0.85;100.00
21658;BME280;10990;48.174;9.782;2023-01-29T06:09:19;94284.50;;;-1.00;100.00
21658;BME280;10990;48.174;9.782;2023-01-29T06:11:47;94304.94;;;-1.20;100.00
21658;BME280;10990;48.174;9.782;2023-01-29T06:14:14;94314.63;;;-1.10;100.00
21658;BME280;10990;48.174;9.782;2023-01-29T06:16:41;94341.16;;;-1.18;100.00
21658;BME280;10990;48.174;9.782;2023-01-29T06:19:07;94344.44;;;-1.16;100.00
21658;BME280;10990;48.174;9.782;2023-01-29T06:21:34;94346.38;;;-1.07;100.00
21658;BME280;10990;48.174;9.782;2023-01-29T06:24:01;94346.25;;;-1.05;100.00
21658;BME280;10990;48.174;9.782;2023-01-29T06:26:27;94358.78;;;-0.99;100.00
21658;BME280;10990;48.174;9.782;2023-01-29T06:28:55;94359.97;;;-1.03;100.00
21658;BME280;10990;48.174;9.782;2023-01-29T06:31:22;94374.22;;;-1.09;100.00
21658;BME280;10990;48.174;9.782;2023-01-29T06:33:49;94365.41;;;-0.95;100.00
21658;BME280;10990;48.174;9.782;2023-01-29T06:36:15;94382.59;;;-1.05;100.00
21658;BME280;10990;48.174;9.782;2023-01-29T06:38:42;94388.50;;;-1.03;100.00
21658;BME280;10990;48.174;9.782;2023-01-29T06:41:10;94368.97;;;-0.85;100.00
21658;BME280;10990;48.174;9.782;2023-01-29T06:43:37;94379.00;;;-0.92;100.00
21658;BME280;10990;48.174;9.782;2023-01-29T06:46:06;94380.22;;;-0.84;100.00
21658;BME280;10990;48.174;9.782;2023-01-29T06:48:33;94390.16;;;-1.02;100.00
21658;BME280;10990;48.174;9.782;2023-01-29T06:51:02;94412.13;;;-1.19;100.00
21658;BME280;10990;48.174;9.782;2023-01-29T06:53:29;94415.59;;;-1.31;100.00
21658;BME280;10990;48.174;9.782;2023-01-29T06:55:56;94408.91;;;-1.23;100.00
21658;BME280;10990;48.174;9.782;2023-01-29T06:58:22;94400.28;;;-0.99;100.00
21658;BME280;10990;48.174;9.782;2023-01-29T07:00:49;94396.84;;;-0.87;100.00
21658;BME280;10990;48.174;9.782;2023-01-29T07:03:17;94408.13;;;-0.88;100.00
21658;BME280;10990;48.174;9.782;2023-01-29T07:05:49;94419.78;;;-0.94;100.00
21658;BME280;10990;48.174;9.782;2023-01-29T07:08:16;94432.25;;;-0.99;100.00
21658;BME280;10990;48.174;9.782;2023-01-29T07:10:43;94427.19;;;-1.00;100.00
21658;BME280;10990;48.174;9.782;2023-01-29T07:13:09;94427.06;;;-0.99;100.00
21658;BME280;10990;48.174;9.782;2023-01-29T07:15:36;94440.94;;;-1.11;100.00
21658;BME280;10990;48.174;9.782;2023-01-29T07:18:03;94447.16;;;-1.14;100.00
21658;BME280;10990;48.174;9.782;2023-01-29T07:20:38;94441.31;;;-1.04;100.00
21658;BME280;10990;48.174;9.782;2023-01-29T07:23:06;94446.31;;;-1.01;100.00
21658;BME280;10990;48.174;9.782;2023-01-29T07:25:34;94449.28;;;-0.95;100.00
21658;BME280;10990;48.174;9.782;2023-01-29T07:28:01;94461.44;;;-0.95;100.00
21658;BME280;10990;48.174;9.782;2023-01-29T07:30:27;94467.75;;;-0.99;100.00
21658;BME280;10990;48.174;9.782;2023-01-29T07:32:55;94475.38;;;-0.85;100.00
21658;BME280;10990;48.174;9.782;2023-01-29T07:35:21;94482.47;;;-0.87;100.00
21658;BME280;10990;48.174;9.782;2023-01-29T07:37:49;94493.91;;;-0.89;100.00
21658;BME280;10990;48.174;9.782;2023-01-29T07:40:16;94502.50;;;-0.89;100.00
21658;BME280;10990;48.174;9.782;2023-01-29T07:42:43;94488.28;;;-0.83;100.00
21658;BME280;10990;48.174;9.782;2023-01-29T07:45:10;94470.75;;;-0.69;100.00
21658;BME280;10990;48.174;9.782;2023-01-29T07:47:37;94476.34;;;-0.62;100.00
21658;BME280;10990;48.174;9.782;2023-01-29T07:50:05;94488.75;;;-0.54;100.00
21658;BME280;10990;48.174;9.782;2023-01-29T07:52:32;94498.22;;;-0.53;100.00
21658;BME280;10990;48.174;9.782;2023-01-29T07:55:00;94527.16;;;-0.71;100.00
21658;BME280;10990;48.174;9.782;2023-01-29T07:57:27;94545.81;;;-0.65;100.00
21658;BME280;10990;48.174;9.782;2023-01-29T07:59:54;94572.97;;;-0.82;100.00
21658;BME280;10990;48.174;9.782;2023-01-29T08:02:21;94557.69;;;-0.74;100.00
21658;BME280;10990;48.174;9.782;2023-01-29T08:04:48;94564.28;;;-0.57;100.00
21658;BME280;10990;48.174;9.782;2023-01-29T08:07:14;94556.28;;;-0.30;100.00
21658;BME280;10990;48.174;9.782;2023-01-29T08:09:41;94559.75;;;-0.18;100.00
21658;BME280;10990;48.174;9.782;2023-01-29T08:12:09;94575.13;;;-0.15;100.00
21658;BME280;10990;48.174;9.782;2023-01-29T08:14:36;94589.22;;;-0.07;100.00
21658;BME280;10990;48.174;9.782;2023-01-29T08:17:02;94613.09;;;-0.26;100.00
21658;BME280;10990;48.174;9.782;2023-01-29T08:19:29;94633.19;;;-0.28;100.00
21658;BME280;10990;48.174;9.782;2023-01-29T08:21:56;94651.47;;;-0.29;100.00
21658;BME280;10990;48.174;9.782;2023-01-29T08:24:23;94657.06;;;-0.22;100.00
21658;BME280;10990;48.174;9.782;2023-01-29T08:26:49;94672.00;;;-0.13;100.00
21658;BME280;10990;48.174;9.782;2023-01-29T08:29:18;94703.63;;;-0.19;100.00
21658;BME280;10990;48.174;9.782;2023-01-29T08:31:45;94720.44;;;-0.12;100.00
21658;BME280;10990;48.174;9.782;2023-01-29T08:34:11;94736.97;;;-0.13;100.00
21658;BME280;10990;48.174;9.782;2023-01-29T08:36:38;94762.25;;;-0.41;100.00
21658;BME280;10990;48.174;9.782;2023-01-29T08:39:05;94760.78;;;-0.32;100.00
21658;BME280;10990;48.174;9.782;2023-01-29T08:41:31;94770.75;;;-0.26;100.00
21658;BME280;10990;48.174;9.782;2023-01-29T08:43:58;94786.13;;;-0.23;100.00
21658;BME280;10990;48.174;9.782;2023-01-29T08:46:28;94807.16;;;-0.39;100.00
21658;BME280;10990;48.174;9.782;2023-01-29T08:48:54;94816.19;;;-0.19;100.00
21658;BME280;10990;48.174;9.782;2023-01-29T08:51:23;94813.56;;;-0.06;100.00
21658;BME280;10990;48.174;9.782;2023-01-29T08:53:50;94809.41;;;-0.09;100.00
21658;BME280;10990;48.174;9.782;2023-01-29T08:56:17;94823.66;;;-0.14;100.00
21658;BME280;10990;48.174;9.782;2023-01-29T08:58:43;94820.44;;;-0.05;100.00
21658;BME280;10990;48.174;9.782;2023-01-29T09:01:11;94835.41;;;-0.21;100.00
21658;BME280;10990;48.174;9.782;2023-01-29T09:03:39;94834.69;;;-0.11;100.00
21658;BME280;10990;48.174;9.782;2023-01-29T09:06:09;94833.84;;;-0.11;100.00
21658;BME280;10990;48.174;9.782;2023-01-29T09:08:36;94849.16;;;-0.19;100.00
21658;BME280;10990;48.174;9.782;2023-01-29T09:11:03;94848.41;;;-0.21;100.00
21658;BME280;10990;48.174;9.782;2023-01-29T09:13:30;94854.56;;;-0.22;100.00
21658;BME280;10990;48.174;9.782;2023-01-29T09:15:58;94860.03;;;-0.27;100.00
21658;BME280;10990;48.174;9.782;2023-01-29T09:18:25;94883.72;;;-0.32;100.00
21658;BME280;10990;48.174;9.782;2023-01-29T09:20:53;94883.84;;;-0.33;100.00
21658;BME280;10990;48.174;9.782;2023-01-29T09:23:20;94887.44;;;-0.49;100.00
21658;BME280;10990;48.174;9.782;2023-01-29T09:25:47;94881.00;;;-0.43;100.00
21658;BME280;10990;48.174;9.782;2023-01-29T09:28:13;94889.72;;;-0.57;100.00
21658;BME280;10990;48.174;9.782;2023-01-29T09:30:41;94880.38;;;-0.59;100.00
21658;BME280;10990;48.174;9.782;2023-01-29T09:33:08;94884.03;;;-0.49;100.00
21658;BME280;10990;48.174;9.782;2023-01-29T09:35:35;94902.09;;;-0.60;100.00
21658;BME280;10990;48.174;9.782;2023-01-29T09:38:03;94895.03;;;-0.58;100.00
21658;BME280;10990;48.174;9.782;2023-01-29T09:40:34;94892.06;;;-0.27;100.00
21658;BME280;10990;48.174;9.782;2023-01-29T09:43:09;94901.19;;;-0.21;100.00
21658;BME280;10990;48.174;9.782;2023-01-29T09:45:40;94919.91;;;-0.16;100.00
21658;BME280;10990;48.174;9.782;2023-01-29T09:48:11;94928.00;;;-0.20;100.00
21658;BME280;10990;48.174;9.782;2023-01-29T09:50:41;94930.44;;;-0.05;100.00
21658;BME280;10990;48.174;9.782;2023-01-29T09:53:16;94935.31;;;0.00;100.00
21658;BME280;10990;48.174;9.782;2023-01-29T09:55:48;94964.31;;;-0.19;100.00
21658;BME280;10990;48.174;9.782;2023-01-29T09:58:18;94973.13;;;-0.21;100.00
21658;BME280;10990;48.174;9.782;2023-01-29T10:00:55;94986.75;;;-0.31;100.00
21658;BME280;10990;48.174;9.782;2023-01-29T10:03:34;94976.59;;;-0.08;100.00
21658;BME280;10990;48.174;9.782;2023-01-29T10:06:18;94979.91;;;-0.06;100.00
21658;BME280;10990;48.174;9.782;2023-01-29T10:09:11;94997.47;;;-0.22;100.00
21658;BME280;10990;48.174;9.782;2023-01-29T10:11:49;94990.50;;;-0.09;100.00
21658;BME280;10990;48.174;9.782;2023-01-29T10:14:27;94990.84;;;-0.01;100.00
21658;BME280;10990;48.174;9.782;2023-01-29T10:17:07;94986.38;;;0.01;100.00
21658;BME280;10990;48.174;9.782;2023-01-29T10:19:52;95008.03;;;-0.26;100.00
21658;BME280;10990;48.174;9.782;2023-01-29T10:25:18;94986.88;;;-0.19;100.00
21658;BME280;10990;48.174;9.782;2023-01-29T10:27:48;94989.88;;;-0.13;100.00
21658;BME280;10990;48.174;9.782;2023-01-29T10:30:22;94989.47;;;-0.19;100.00
21658;BME280;10990;48.174;9.782;2023-01-29T10:32:53;94978.06;;;0.09;100.00
21658;BME280;10990;48.174;9.782;2023-01-29T10:35:23;94991.91;;;0.09;100.00
21658;BME280;10990;48.174;9.782;2023-01-29T10:37:52;95012.31;;;-0.12;100.00
21658;BME280;10990;48.174;9.782;2023-01-29T10:40:22;95012.72;;;-0.31;100.00
21658;BME280;10990;48.174;9.782;2023-01-29T10:42:57;95009.88;;;-0.40;100.00
21658;BME280;10990;48.174;9.782;2023-01-29T10:45:32;95006.09;;;-0.22;100.00
21658;BME280;10990;48.174;9.782;2023-01-29T10:48:29;95017.22;;;-0.47;100.00
21658;BME280;10990;48.174;9.782;2023-01-29T10:51:08;94993.06;;;-0.35;100.00
21658;BME280;10990;48.174;9.782;2023-01-29T10:53:51;94988.53;;;-0.18;100.00
21658;BME280;10990;48.174;9.782;2023-01-29T10:56:33;94987.38;;;-0.14;100.00
21658;BME280;10990;48.174;9.782;2023-01-29T10:59:05;94994.25;;;-0.13;100.00
21658;BME280;10990;48.174;9.782;2023-01-29T11:01:35;94986.16;;;0.04;100.00
21658;BME280;10990;48.174;9.782;2023-01-29T11:04:03;94997.06;;;-0.04;100.00
21658;BME280;10990;48.174;9.782;2023-01-29T11:06:32;94994.50;;;0.09;100.00
21658;BME280;10990;48.174;9.782;2023-01-29T11:09:04;94994.59;;;0.08;100.00
21658;BME280;10990;48.174;9.782;2023-01-29T11:11:40;95008.94;;;0.01;100.00
21658;BME280;10990;48.174;9.782;2023-01-29T11:14:11;95014.50;;;-0.18;100.00
21658;BME280;10990;48.174;9.782;2023-01-29T11:16:41;95010.75;;;-0.14;100.00
21658;BME280;10990;48.174;9.782;2023-01-29T11:19:08;94996.84;;;-0.13;100.00
21658;BME280;10990;48.174;9.782;2023-01-29T11:21:50;94994.38;;;0.11;100.00
21658;BME280;10990;48.174;9.782;2023-01-29T11:24:17;95001.13;;;0.01;100.00
21658;BME280;10990;48.174;9.782;2023-01-29T11:26:48;94994.91;;;0.03;100.00
21658;BME280;10990;48.174;9.782;2023-01-29T11:29:37;94993.22;;;0.02;100.00
21658;BME280;10990;48.174;9.782;2023-01-29T11:32:06;95007.25;;;-0.01;100.00
21658;BME280;10990;48.174;9.782;2023-01-29T11:34:33;95001.16;;;0.26;100.00
21658;BME280;10990;48.174;9.782;2023-01-29T11:37:02;95021.31;;;0.10;100.00
21658;BME280;10990;48.174;9.782;2023-01-29T11:39:31;95032.09;;;-0.09;100.00
21658;BME280;10990;48.174;9.782;2023-01-29T11:42:00;95036.59;;;0.02;100.00
21658;BME280;10990;48.174;9.782;2023-01-29T11:44:30;95011.88;;;0.34;100.00
21658;BME280;10990;48.174;9.782;2023-01-29T11:47:09;95019.03;;;0.18;100.00
21658;BME280;10990;48.174;9.782;2023-01-29T11:49:38;95005.94;;;0.32;100.00
21658;BME280;10990;48.174;9.782;2023-01-29T11:52:08;95012.81;;;0.33;100.00
21658;BME280;10990;48.174;9.782;2023-01-29T11:54:37;95023.59;;;0.02;100.00
21658;BME280;10990;48.174;9.782;2023-01-29T11:57:20;95033.69;;;0.06;100.00
21658;BME280;10990;48.174;9.782;2023-01-29T11:59:49;95035.75;;;0.01;100.00
21658;BME280;10990;48.174;9.782;2023-01-29T12:02:24;95043.97;;;-0.05;100.00
21658;BME280;10990;48.174;9.782;2023-01-29T12:04:56;95038.34;;;0.01;100.00
21658;BME280;10990;48.174;9.782;2023-01-29T12:07:24;95032.34;;;0.13;100.00
21658;BME280;10990;48.174;9.782;2023-01-29T12:09:53;95026.09;;;0.16;100.00
21658;BME280;10990;48.174;9.782;2023-01-29T12:12:30;95027.06;;;0.15;100.00
21658;BME280;10990;48.174;9.782;2023-01-29T12:15:20;95025.06;;;0.18;100.00
21658;BME280;10990;48.174;9.782;2023-01-29T12:17:52;95010.53;;;0.29;100.00
21658;BME280;10990;48.174;9.782;2023-01-29T12:20:27;95019.78;;;0.20;100.00
21658;BME280;10990;48.174;9.782;2023-01-29T12:23:00;95010.53;;;0.29;100.00
21658;BME280;10990;48.174;9.782;2023-01-29T12:25:37;94989.50;;;0.44;100.00
21658;BME280;10990;48.174;9.782;2023-01-29T12:28:17;94984.84;;;0.37;100.00
21658;BME280;10990;48.174;9.782;2023-01-29T12:30:52;94971.19;;;0.46;100.00
21658;BME280;10990;48.174;9.782;2023-01-29T12:33:35;94961.41;;;0.50;100.00
21658;BME280;10990;48.174;9.782;2023-01-29T12:36:08;94966.22;;;0.43;100.00
21658;BME280;10990;48.174;9.782;2023-01-29T12:38:38;94979.19;;;0.05;100.00
21658;BME280;10990;48.174;9.782;2023-01-29T12:41:09;94958.63;;;0.40;100.00
21658;BME280;10990;48.174;9.782;2023-01-29T12:43:45;94956.94;;;0.39;100.00
21658;BME280;10990;48.174;9.782;2023-01-29T12:46:20;94950.56;;;0.56;100.00
21658;BME280;10990;48.174;9.782;2023-01-29T12:48:48;94975.34;;;0.36;100.00
21658;BME280;10990;48.174;9.782;2023-01-29T12:51:18;94965.78;;;0.49;100.00
21658;BME280;10990;48.174;9.782;2023-01-29T12:53:49;94947.66;;;0.60;100.00
21658;BME280;10990;48.174;9.782;2023-01-29T12:56:25;94949.53;;;0.58;100.00
21658;BME280;10990;48.174;9.782;2023-01-29T12:58:55;94956.31;;;0.48;100.00
21658;BME280;10990;48.174;9.782;2023-01-29T13:01:27;94953.59;;;0.50;100.00
21658;BME280;10990;48.174;9.782;2023-01-29T13:03:58;94956.59;;;0.56;100.00
21658;BME280;10990;48.174;9.782;2023-01-29T13:06:30;94951.94;;;0.49;100.00
21658;BME280;10990;48.174;9.782;2023-01-29T13:09:02;94937.03;;;0.51;100.00
21658;BME280;10990;48.174;9.782;2023-01-29T13:11:36;94919.97;;;0.59;100.00
21658;BME280;10990;48.174;9.782;2023-01-29T13:14:13;94908.78;;;0.70;100.00
21658;BME280;10990;48.174;9.782;2023-01-29T13:16:47;94920.38;;;0.66;100.00